Terminal Aerodrome Forecast
Issued by NWS North Platte, NE

Home | Current Version | Previous Version | Text Only | Print | Product List | Glossary On
Versions: 1 2 3 4 5 6 7 8 9 10 11 12 13 14 15 16 17 18 19 20 21 22
000
FTUS43 KLBF 180900 AAB
TAFVTN
TAF AMD
KVTN 180936Z 1810/1906 20007KT P6SM OVC009
     FM181800 21008KT P6SM OVC010
     FM190200 25005KT P6SM SCT010=

USA.gov is the U.S. government's official web portal to all federal, state and local government web resources and services.